sensor_id;sensor_type;location;lat;lon;timestamp;P1;durP1;ratioP1;P2;durP2;ratioP2
74900;SDS011;63461;51.416;6.758;2024-01-16T00:00:02;5.40;;;2.47;;
74900;SDS011;63461;51.416;6.758;2024-01-16T00:02:30;11.70;;;3.87;;
74900;SDS011;63461;51.416;6.758;2024-01-16T00:04:56;8.87;;;3.70;;
74900;SDS011;63461;51.416;6.758;2024-01-16T00:07:21;12.63;;;4.00;;
74900;SDS011;63461;51.416;6.758;2024-01-16T00:09:47;7.77;;;2.87;;
74900;SDS011;63461;51.416;6.758;2024-01-16T00:12:13;12.57;;;3.73;;
74900;SDS011;63461;51.416;6.758;2024-01-16T00:14:39;13.60;;;4.10;;
74900;SDS011;63461;51.416;6.758;2024-01-16T00:17:05;7.07;;;3.40;;
74900;SDS011;63461;51.416;6.758;2024-01-16T00:19:30;9.53;;;2.77;;
74900;SDS011;63461;51.416;6.758;2024-01-16T00:21:56;7.80;;;3.60;;
74900;SDS011;63461;51.416;6.758;2024-01-16T00:24:22;6.13;;;3.47;;
74900;SDS011;63461;51.416;6.758;2024-01-16T00:26:48;7.67;;;3.10;;
74900;SDS011;63461;51.416;6.758;2024-01-16T00:29:15;8.00;;;3.00;;
74900;SDS011;63461;51.416;6.758;2024-01-16T00:31:41;10.37;;;3.43;;
74900;SDS011;63461;51.416;6.758;2024-01-16T00:34:06;6.67;;;3.07;;
74900;SDS011;63461;51.416;6.758;2024-01-16T00:36:32;8.67;;;3.27;;
74900;SDS011;63461;51.416;6.758;2024-01-16T00:38:58;7.73;;;2.80;;
74900;SDS011;63461;51.416;6.758;2024-01-16T00:41:24;5.63;;;2.80;;
74900;SDS011;63461;51.416;6.758;2024-01-16T00:43:50;6.70;;;2.57;;
74900;SDS011;63461;51.416;6.758;2024-01-16T00:46:16;7.20;;;2.97;;
74900;SDS011;63461;51.416;6.758;2024-01-16T00:48:41;3.20;;;1.40;;
74900;SDS011;63461;51.416;6.758;2024-01-16T00:51:07;5.10;;;2.90;;
74900;SDS011;63461;51.416;6.758;2024-01-16T00:53:33;9.33;;;2.90;;
74900;SDS011;63461;51.416;6.758;2024-01-16T00:55:58;7.97;;;3.07;;
74900;SDS011;63461;51.416;6.758;2024-01-16T00:58:24;4.63;;;2.40;;
74900;SDS011;63461;51.416;6.758;2024-01-16T01:00:51;8.13;;;2.90;;
74900;SDS011;63461;51.416;6.758;2024-01-16T01:03:17;9.27;;;2.97;;
74900;SDS011;63461;51.416;6.758;2024-01-16T01:05:43;8.57;;;2.97;;
74900;SDS011;63461;51.416;6.758;2024-01-16T01:08:09;7.07;;;2.50;;
74900;SDS011;63461;51.416;6.758;2024-01-16T01:10:34;11.53;;;2.87;;
74900;SDS011;63461;51.416;6.758;2024-01-16T01:13:00;5.17;;;3.07;;
74900;SDS011;63461;51.416;6.758;2024-01-16T01:15:26;10.67;;;3.70;;
74900;SDS011;63461;51.416;6.758;2024-01-16T01:17:52;11.40;;;3.50;;
74900;SDS011;63461;51.416;6.758;2024-01-16T01:20:19;7.33;;;2.57;;
74900;SDS011;63461;51.416;6.758;2024-01-16T01:22:45;7.90;;;2.80;;
74900;SDS011;63461;51.416;6.758;2024-01-16T01:25:11;12.97;;;2.83;;
74900;SDS011;63461;51.416;6.758;2024-01-16T01:27:38;11.87;;;2.97;;
74900;SDS011;63461;51.416;6.758;2024-01-16T01:30:05;6.70;;;3.13;;
74900;SDS011;63461;51.416;6.758;2024-01-16T01:32:32;11.90;;;3.20;;
74900;SDS011;63461;51.416;6.758;2024-01-16T01:34:58;10.90;;;3.30;;
74900;SDS011;63461;51.416;6.758;2024-01-16T01:37:24;10.60;;;3.47;;
74900;SDS011;63461;51.416;6.758;2024-01-16T01:39:50;8.83;;;4.03;;
74900;SDS011;63461;51.416;6.758;2024-01-16T01:42:16;7.97;;;3.57;;
74900;SDS011;63461;51.416;6.758;2024-01-16T01:44:42;10.53;;;3.80;;
74900;SDS011;63461;51.416;6.758;2024-01-16T01:47:08;4.23;;;1.63;;
74900;SDS011;63461;51.416;6.758;2024-01-16T01:49:34;10.00;;;4.27;;
74900;SDS011;63461;51.416;6.758;2024-01-16T01:52:01;10.20;;;4.37;;
74900;SDS011;63461;51.416;6.758;2024-01-16T01:54:29;10.53;;;3.93;;
74900;SDS011;63461;51.416;6.758;2024-01-16T01:56:56;8.70;;;4.50;;
74900;SDS011;63461;51.416;6.758;2024-01-16T01:59:22;13.83;;;4.77;;
74900;SDS011;63461;51.416;6.758;2024-01-16T02:01:49;11.23;;;5.23;;
74900;SDS011;63461;51.416;6.758;2024-01-16T02:04:18;14.60;;;5.43;;
74900;SDS011;63461;51.416;6.758;2024-01-16T02:06:45;8.40;;;4.10;;
74900;SDS011;63461;51.416;6.758;2024-01-16T02:09:11;12.03;;;5.43;;
74900;SDS011;63461;51.416;6.758;2024-01-16T02:11:39;8.60;;;5.10;;
74900;SDS011;63461;51.416;6.758;2024-01-16T02:14:06;13.07;;;5.03;;
74900;SDS011;63461;51.416;6.758;2024-01-16T02:16:37;14.37;;;5.37;;
74900;SDS011;63461;51.416;6.758;2024-01-16T02:19:04;11.73;;;5.77;;
74900;SDS011;63461;51.416;6.758;2024-01-16T02:21:32;11.17;;;5.77;;
74900;SDS011;63461;51.416;6.758;2024-01-16T02:24:13;15.43;;;6.30;;
74900;SDS011;63461;51.416;6.758;2024-01-16T02:26:41;9.50;;;5.37;;
74900;SDS011;63461;51.416;6.758;2024-01-16T02:29:06;9.20;;;5.30;;
74900;SDS011;63461;51.416;6.758;2024-01-16T02:31:32;17.53;;;6.10;;
74900;SDS011;63461;51.416;6.758;2024-01-16T02:33:59;9.23;;;5.73;;
74900;SDS011;63461;51.416;6.758;2024-01-16T02:36:25;13.03;;;5.87;;
74900;SDS011;63461;51.416;6.758;2024-01-16T02:38:51;11.07;;;5.73;;
74900;SDS011;63461;51.416;6.758;2024-01-16T02:41:17;18.47;;;7.03;;
74900;SDS011;63461;51.416;6.758;2024-01-16T02:43:43;13.57;;;6.20;;
74900;SDS011;63461;51.416;6.758;2024-01-16T02:46:09;13.07;;;6.07;;
74900;SDS011;63461;51.416;6.758;2024-01-16T02:48:36;14.00;;;6.83;;
74900;SDS011;63461;51.416;6.758;2024-01-16T02:51:02;13.60;;;6.97;;
74900;SDS011;63461;51.416;6.758;2024-01-16T02:53:29;15.57;;;7.77;;
74900;SDS011;63461;51.416;6.758;2024-01-16T02:55:55;13.60;;;8.10;;
74900;SDS011;63461;51.416;6.758;2024-01-16T02:58:24;13.80;;;6.40;;
74900;SDS011;63461;51.416;6.758;2024-01-16T03:00:52;12.70;;;7.07;;
74900;SDS011;63461;51.416;6.758;2024-01-16T03:03:18;21.67;;;8.33;;
74900;SDS011;63461;51.416;6.758;2024-01-16T03:05:44;19.67;;;7.10;;
74900;SDS011;63461;51.416;6.758;2024-01-16T03:08:10;14.27;;;6.33;;
74900;SDS011;63461;51.416;6.758;2024-01-16T03:10:36;16.20;;;8.27;;
74900;SDS011;63461;51.416;6.758;2024-01-16T03:13:01;17.13;;;8.23;;
74900;SDS011;63461;51.416;6.758;2024-01-16T03:15:28;16.90;;;8.43;;
74900;SDS011;63461;51.416;6.758;2024-01-16T03:17:56;19.67;;;7.67;;
74900;SDS011;63461;51.416;6.758;2024-01-16T03:20:22;14.50;;;7.23;;
74900;SDS011;63461;51.416;6.758;2024-01-16T03:22:48;16.63;;;8.27;;
74900;SDS011;63461;51.416;6.758;2024-01-16T03:25:15;16.77;;;8.13;;
74900;SDS011;63461;51.416;6.758;2024-01-16T03:27:42;13.47;;;6.03;;
74900;SDS011;63461;51.416;6.758;2024-01-16T03:30:08;17.37;;;4.83;;
74900;SDS011;63461;51.416;6.758;2024-01-16T03:32:37;18.73;;;8.57;;
74900;SDS011;63461;51.416;6.758;2024-01-16T03:35:07;18.83;;;8.63;;
74900;SDS011;63461;51.416;6.758;2024-01-16T03:37:33;20.17;;;8.87;;
74900;SDS011;63461;51.416;6.758;2024-01-16T03:39:59;14.07;;;7.70;;
74900;SDS011;63461;51.416;6.758;2024-01-16T03:42:25;18.47;;;8.93;;
74900;SDS011;63461;51.416;6.758;2024-01-16T03:44:51;20.53;;;9.13;;
74900;SDS011;63461;51.416;6.758;2024-01-16T03:47:17;14.67;;;6.50;;
74900;SDS011;63461;51.416;6.758;2024-01-16T03:49:43;18.73;;;7.97;;
74900;SDS011;63461;51.416;6.758;2024-01-16T03:52:09;22.33;;;9.70;;
74900;SDS011;63461;51.416;6.758;2024-01-16T03:54:35;19.27;;;8.63;;
74900;SDS011;63461;51.416;6.758;2024-01-16T03:57:01;17.00;;;8.93;;
74900;SDS011;63461;51.416;6.758;2024-01-16T03:59:26;22.23;;;9.53;;
74900;SDS011;63461;51.416;6.758;2024-01-16T04:01:52;19.80;;;9.33;;
74900;SDS011;63461;51.416;6.758;2024-01-16T04:04:18;18.00;;;8.90;;
74900;SDS011;63461;51.416;6.758;2024-01-16T04:06:44;23.33;;;9.13;;
74900;SDS011;63461;51.416;6.758;2024-01-16T04:09:11;17.57;;;9.13;;
74900;SDS011;63461;51.416;6.758;2024-01-16T04:11:37;23.43;;;8.67;;
74900;SDS011;63461;51.416;6.758;2024-01-16T04:14:03;19.57;;;7.93;;
74900;SDS011;63461;51.416;6.758;2024-01-16T04:16:29;17.50;;;8.00;;
74900;SDS011;63461;51.416;6.758;2024-01-16T04:18:55;18.67;;;7.33;;
74900;SDS011;63461;51.416;6.758;2024-01-16T04:21:20;17.10;;;7.80;;
74900;SDS011;63461;51.416;6.758;2024-01-16T04:23:46;14.33;;;6.23;;
74900;SDS011;63461;51.416;6.758;2024-01-16T04:26:12;15.60;;;6.57;;
74900;SDS011;63461;51.416;6.758;2024-01-16T04:28:38;19.40;;;6.03;;
74900;SDS011;63461;51.416;6.758;2024-01-16T04:31:04;13.87;;;5.50;;
74900;SDS011;63461;51.416;6.758;2024-01-16T04:33:30;13.40;;;6.33;;
74900;SDS011;63461;51.416;6.758;2024-01-16T04:35:56;12.23;;;5.23;;
74900;SDS011;63461;51.416;6.758;2024-01-16T04:38:22;7.07;;;3.50;;
74900;SDS011;63461;51.416;6.758;2024-01-16T04:40:49;11.57;;;4.93;;
74900;SDS011;63461;51.416;6.758;2024-01-16T04:43:15;9.07;;;4.30;;
74900;SDS011;63461;51.416;6.758;2024-01-16T04:45:41;10.97;;;4.13;;
74900;SDS011;63461;51.416;6.758;2024-01-16T04:48:07;11.43;;;4.63;;
74900;SDS011;63461;51.416;6.758;2024-01-16T04:50:36;8.60;;;4.60;;
74900;SDS011;63461;51.416;6.758;2024-01-16T04:53:01;9.10;;;3.50;;
74900;SDS011;63461;51.416;6.758;2024-01-16T04:55:28;8.57;;;3.93;;
74900;SDS011;63461;51.416;6.758;2024-01-16T04:57:55;12.63;;;3.80;;
74900;SDS011;63461;51.416;6.758;2024-01-16T05:00:21;8.73;;;3.60;;
74900;SDS011;63461;51.416;6.758;2024-01-16T05:02:48;6.27;;;3.50;;
74900;SDS011;63461;51.416;6.758;2024-01-16T05:05:14;3.27;;;1.27;;
74900;SDS011;63461;51.416;6.758;2024-01-16T05:07:50;9.60;;;3.57;;
74900;SDS011;63461;51.416;6.758;2024-01-16T05:10:16;7.97;;;3.37;;
74900;SDS011;63461;51.416;6.758;2024-01-16T05:12:42;7.13;;;3.63;;
74900;SDS011;63461;51.416;6.758;2024-01-16T05:15:09;9.40;;;3.53;;
74900;SDS011;63461;51.416;6.758;2024-01-16T05:17:38;8.63;;;3.70;;
74900;SDS011;63461;51.416;6.758;2024-01-16T05:20:04;12.33;;;4.50;;
74900;SDS011;63461;51.416;6.758;2024-01-16T05:22:30;8.70;;;3.63;;
74900;SDS011;63461;51.416;6.758;2024-01-16T05:24:56;10.47;;;4.87;;
74900;SDS011;63461;51.416;6.758;2024-01-16T05:27:22;11.53;;;5.10;;
74900;SDS011;63461;51.416;6.758;2024-01-16T05:29:48;8.07;;;4.27;;
74900;SDS011;63461;51.416;6.758;2024-01-16T05:32:14;12.97;;;6.07;;
74900;SDS011;63461;51.416;6.758;2024-01-16T05:34:40;11.43;;;6.03;;
74900;SDS011;63461;51.416;6.758;2024-01-16T05:37:05;13.67;;;6.43;;
74900;SDS011;63461;51.416;6.758;2024-01-16T05:39:35;14.57;;;6.93;;
74900;SDS011;63461;51.416;6.758;2024-01-16T05:42:08;16.50;;;6.87;;
74900;SDS011;63461;51.416;6.758;2024-01-16T05:44:34;16.60;;;7.90;;
74900;SDS011;63461;51.416;6.758;2024-01-16T05:47:00;17.77;;;7.00;;
74900;SDS011;63461;51.416;6.758;2024-01-16T05:49:28;21.53;;;7.83;;
74900;SDS011;63461;51.416;6.758;2024-01-16T05:51:54;16.30;;;9.17;;
74900;SDS011;63461;51.416;6.758;2024-01-16T05:54:20;22.17;;;10.10;;
74900;SDS011;63461;51.416;6.758;2024-01-16T05:56:49;23.40;;;9.13;;
74900;SDS011;63461;51.416;6.758;2024-01-16T05:59:15;18.93;;;8.33;;
74900;SDS011;63461;51.416;6.758;2024-01-16T06:01:41;16.90;;;6.97;;
74900;SDS011;63461;51.416;6.758;2024-01-16T06:04:07;16.63;;;7.40;;
74900;SDS011;63461;51.416;6.758;2024-01-16T06:06:36;19.30;;;7.23;;
74900;SDS011;63461;51.416;6.758;2024-01-16T06:09:02;23.33;;;7.63;;
74900;SDS011;63461;51.416;6.758;2024-01-16T06:11:33;15.67;;;6.40;;
74900;SDS011;63461;51.416;6.758;2024-01-16T06:14:03;24.83;;;8.10;;
74900;SDS011;63461;51.416;6.758;2024-01-16T06:16:29;13.37;;;6.43;;
74900;SDS011;63461;51.416;6.758;2024-01-16T06:18:55;18.30;;;7.30;;
74900;SDS011;63461;51.416;6.758;2024-01-16T06:21:20;13.83;;;6.77;;
74900;SDS011;63461;51.416;6.758;2024-01-16T06:23:46;18.13;;;7.57;;
74900;SDS011;63461;51.416;6.758;2024-01-16T06:26:12;13.87;;;7.00;;
74900;SDS011;63461;51.416;6.758;2024-01-16T06:28:38;16.80;;;7.60;;
74900;SDS011;63461;51.416;6.758;2024-01-16T06:31:05;17.93;;;7.17;;
74900;SDS011;63461;51.416;6.758;2024-01-16T06:33:31;19.20;;;7.50;;
74900;SDS011;63461;51.416;6.758;2024-01-16T06:35:56;17.43;;;6.40;;
74900;SDS011;63461;51.416;6.758;2024-01-16T06:38:22;19.00;;;6.93;;
74900;SDS011;63461;51.416;6.758;2024-01-16T06:40:48;4.13;;;2.00;;
74900;SDS011;63461;51.416;6.758;2024-01-16T06:43:14;16.10;;;6.80;;
74900;SDS011;63461;51.416;6.758;2024-01-16T06:45:44;13.07;;;5.13;;
74900;SDS011;63461;51.416;6.758;2024-01-16T06:48:10;18.93;;;5.43;;
74900;SDS011;63461;51.416;6.758;2024-01-16T06:50:35;16.37;;;5.90;;
74900;SDS011;63461;51.416;6.758;2024-01-16T06:53:01;12.37;;;3.97;;
74900;SDS011;63461;51.416;6.758;2024-01-16T06:55:27;18.83;;;6.10;;
74900;SDS011;63461;51.416;6.758;2024-01-16T06:57:53;16.53;;;4.97;;
74900;SDS011;63461;51.416;6.758;2024-01-16T07:00:19;13.30;;;6.10;;
74900;SDS011;63461;51.416;6.758;2024-01-16T07:02:46;17.20;;;5.73;;
74900;SDS011;63461;51.416;6.758;2024-01-16T07:05:12;14.27;;;5.43;;
74900;SDS011;63461;51.416;6.758;2024-01-16T07:07:38;17.77;;;5.70;;
74900;SDS011;63461;51.416;6.758;2024-01-16T07:10:03;13.30;;;5.10;;
74900;SDS011;63461;51.416;6.758;2024-01-16T07:12:33;16.10;;;5.00;;
74900;SDS011;63461;51.416;6.758;2024-01-16T07:14:59;12.17;;;4.30;;
74900;SDS011;63461;51.416;6.758;2024-01-16T07:17:25;13.80;;;4.47;;
74900;SDS011;63461;51.416;6.758;2024-01-16T07:19:51;23.63;;;4.27;;
74900;SDS011;63461;51.416;6.758;2024-01-16T07:22:17;7.60;;;3.47;;
74900;SDS011;63461;51.416;6.758;2024-01-16T07:24:42;8.93;;;4.10;;
74900;SDS011;63461;51.416;6.758;2024-01-16T07:27:08;11.57;;;4.30;;
74900;SDS011;63461;51.416;6.758;2024-01-16T07:29:34;16.90;;;3.90;;
74900;SDS011;63461;51.416;6.758;2024-01-16T07:32:00;12.40;;;4.47;;
74900;SDS011;63461;51.416;6.758;2024-01-16T07:34:25;11.20;;;4.33;;
74900;SDS011;63461;51.416;6.758;2024-01-16T07:36:51;9.93;;;3.57;;
74900;SDS011;63461;51.416;6.758;2024-01-16T07:39:17;12.93;;;3.63;;
74900;SDS011;63461;51.416;6.758;2024-01-16T07:41:42;14.07;;;3.77;;
74900;SDS011;63461;51.416;6.758;2024-01-16T07:44:08;14.80;;;4.37;;
74900;SDS011;63461;51.416;6.758;2024-01-16T07:46:34;12.37;;;3.80;;
74900;SDS011;63461;51.416;6.758;2024-01-16T07:49:00;17.60;;;3.70;;
74900;SDS011;63461;51.416;6.758;2024-01-16T07:51:26;18.40;;;3.70;;
74900;SDS011;63461;51.416;6.758;2024-01-16T07:54:04;8.97;;;3.73;;
74900;SDS011;63461;51.416;6.758;2024-01-16T07:56:32;13.03;;;3.10;;
74900;SDS011;63461;51.416;6.758;2024-01-16T07:58:59;9.13;;;2.63;;
74900;SDS011;63461;51.416;6.758;2024-01-16T08:01:24;9.30;;;2.80;;
74900;SDS011;63461;51.416;6.758;2024-01-16T08:03:50;12.77;;;3.17;;
74900;SDS011;63461;51.416;6.758;2024-01-16T08:06:16;10.17;;;2.97;;
74900;SDS011;63461;51.416;6.758;2024-01-16T08:08:42;7.17;;;2.60;;
74900;SDS011;63461;51.416;6.758;2024-01-16T08:11:08;12.10;;;3.03;;
74900;SDS011;63461;51.416;6.758;2024-01-16T08:13:33;8.27;;;3.03;;
74900;SDS011;63461;51.416;6.758;2024-01-16T08:15:59;7.60;;;2.50;;
74900;SDS011;63461;51.416;6.758;2024-01-16T08:18:25;6.67;;;2.10;;
74900;SDS011;63461;51.416;6.758;2024-01-16T08:20:51;11.47;;;2.60;;
74900;SDS011;63461;51.416;6.758;2024-01-16T08:23:17;8.87;;;3.00;;
74900;SDS011;63461;51.416;6.758;2024-01-16T08:25:43;10.50;;;2.97;;
74900;SDS011;63461;51.416;6.758;2024-01-16T08:28:09;8.13;;;2.37;;
74900;SDS011;63461;51.416;6.758;2024-01-16T08:30:35;11.10;;;2.73;;
74900;SDS011;63461;51.416;6.758;2024-01-16T08:33:01;10.73;;;2.23;;
74900;SDS011;63461;51.416;6.758;2024-01-16T08:35:27;6.27;;;2.13;;
74900;SDS011;63461;51.416;6.758;2024-01-16T08:37:53;10.60;;;2.53;;
74900;SDS011;63461;51.416;6.758;2024-01-16T08:40:21;7.03;;;2.90;;
74900;SDS011;63461;51.416;6.758;2024-01-16T08:42:47;10.20;;;2.63;;
74900;SDS011;63461;51.416;6.758;2024-01-16T08:45:17;7.90;;;2.67;;
74900;SDS011;63461;51.416;6.758;2024-01-16T08:47:42;13.27;;;2.47;;
74900;SDS011;63461;51.416;6.758;2024-01-16T08:50:09;11.30;;;2.43;;
74900;SDS011;63461;51.416;6.758;2024-01-16T08:52:35;12.13;;;2.70;;
74900;SDS011;63461;51.416;6.758;2024-01-16T08:55:01;11.57;;;1.77;;
74900;SDS011;63461;51.416;6.758;2024-01-16T08:57:27;13.27;;;1.97;;
74900;SDS011;63461;51.416;6.758;2024-01-16T08:59:53;9.07;;;1.87;;
74900;SDS011;63461;51.416;6.758;2024-01-16T09:02:18;9.03;;;2.33;;
74900;SDS011;63461;51.416;6.758;2024-01-16T09:04:44;13.70;;;3.40;;
74900;SDS011;63461;51.416;6.758;2024-01-16T09:07:10;7.73;;;2.40;;
74900;SDS011;63461;51.416;6.758;2024-01-16T09:09:41;9.27;;;2.67;;
74900;SDS011;63461;51.416;6.758;2024-01-16T09:12:08;8.23;;;1.77;;
74900;SDS011;63461;51.416;6.758;2024-01-16T09:14:34;9.60;;;3.17;;
74900;SDS011;63461;51.416;6.758;2024-01-16T09:17:00;9.83;;;2.60;;
74900;SDS011;63461;51.416;6.758;2024-01-16T09:19:26;6.60;;;2.87;;
74900;SDS011;63461;51.416;6.758;2024-01-16T09:21:51;7.37;;;2.97;;
74900;SDS011;63461;51.416;6.758;2024-01-16T09:24:17;6.20;;;2.17;;
74900;SDS011;63461;51.416;6.758;2024-01-16T09:26:44;9.27;;;3.17;;
74900;SDS011;63461;51.416;6.758;2024-01-16T09:29:10;8.27;;;2.83;;
74900;SDS011;63461;51.416;6.758;2024-01-16T09:31:35;10.33;;;3.30;;
74900;SDS011;63461;51.416;6.758;2024-01-16T09:34:02;10.17;;;2.57;;
74900;SDS011;63461;51.416;6.758;2024-01-16T09:36:29;8.00;;;2.53;;
74900;SDS011;63461;51.416;6.758;2024-01-16T09:38:54;10.03;;;3.10;;
74900;SDS011;63461;51.416;6.758;2024-01-16T09:41:20;9.03;;;2.83;;
74900;SDS011;63461;51.416;6.758;2024-01-16T09:43:46;12.63;;;2.67;;
74900;SDS011;63461;51.416;6.758;2024-01-16T09:46:12;12.53;;;3.00;;
74900;SDS011;63461;51.416;6.758;2024-01-16T09:48:41;11.83;;;2.90;;
74900;SDS011;63461;51.416;6.758;2024-01-16T09:51:10;3.80;;;1.83;;
74900;SDS011;63461;51.416;6.758;2024-01-16T09:53:41;7.57;;;2.40;;
74900;SDS011;63461;51.416;6.758;2024-01-16T09:56:10;6.13;;;1.80;;
74900;SDS011;63461;51.416;6.758;2024-01-16T09:58:41;9.40;;;2.53;;
74900;SDS011;63461;51.416;6.758;2024-01-16T10:01:08;6.37;;;2.63;;
74900;SDS011;63461;51.416;6.758;2024-01-16T10:03:36;11.60;;;2.27;;
74900;SDS011;63461;51.416;6.758;2024-01-16T10:06:03;6.90;;;2.37;;
74900;SDS011;63461;51.416;6.758;2024-01-16T10:08:31;6.37;;;1.70;;
74900;SDS011;63461;51.416;6.758;2024-01-16T10:10:58;14.07;;;3.13;;
74900;SDS011;63461;51.416;6.758;2024-01-16T10:13:26;6.37;;;2.10;;
74900;SDS011;63461;51.416;6.758;2024-01-16T10:15:52;11.37;;;2.87;;
74900;SDS011;63461;51.416;6.758;2024-01-16T10:18:24;14.07;;;3.00;;
74900;SDS011;63461;51.416;6.758;2024-01-16T10:20:51;7.57;;;2.83;;
74900;SDS011;63461;51.416;6.758;2024-01-16T10:23:25;8.90;;;2.30;;
74900;SDS011;63461;51.416;6.758;2024-01-16T10:26:04;10.67;;;2.73;;
74900;SDS011;63461;51.416;6.758;2024-01-16T10:28:40;12.13;;;3.07;;
74900;SDS011;63461;51.416;6.758;2024-01-16T10:31:07;11.17;;;2.87;;
74900;SDS011;63461;51.416;6.758;2024-01-16T10:33:34;11.90;;;2.80;;
74900;SDS011;63461;51.416;6.758;2024-01-16T10:36:09;10.57;;;3.33;;
74900;SDS011;63461;51.416;6.758;2024-01-16T10:38:46;6.03;;;1.90;;
74900;SDS011;63461;51.416;6.758;2024-01-16T10:41:15;9.30;;;2.87;;
74900;SDS011;63461;51.416;6.758;2024-01-16T10:43:42;10.37;;;3.20;;
74900;SDS011;63461;51.416;6.758;2024-01-16T10:46:13;8.00;;;3.30;;
74900;SDS011;63461;51.416;6.758;2024-01-16T10:48:43;8.20;;;2.93;;
74900;SDS011;63461;51.416;6.758;2024-01-16T10:51:13;8.27;;;3.13;;
74900;SDS011;63461;51.416;6.758;2024-01-16T10:53:43;13.90;;;3.13;;
74900;SDS011;63461;51.416;6.758;2024-01-16T10:56:12;11.00;;;3.10;;
74900;SDS011;63461;51.416;6.758;2024-01-16T10:58:39;10.33;;;3.27;;
74900;SDS011;63461;51.416;6.758;2024-01-16T11:01:08;13.23;;;3.07;;
74900;SDS011;63461;51.416;6.758;2024-01-16T11:03:42;10.87;;;2.73;;
74900;SDS011;63461;51.416;6.758;2024-01-16T11:06:14;11.03;;;2.87;;
74900;SDS011;63461;51.416;6.758;2024-01-16T11:08:46;6.67;;;1.93;;
74900;SDS011;63461;51.416;6.758;2024-01-16T11:11:13;7.33;;;2.80;;
74900;SDS011;63461;51.416;6.758;2024-01-16T11:13:40;7.67;;;3.10;;
74900;SDS011;63461;51.416;6.758;2024-01-16T11:16:10;9.93;;;2.83;;
74900;SDS011;63461;51.416;6.758;2024-01-16T11:18:36;8.87;;;2.80;;
74900;SDS011;63461;51.416;6.758;2024-01-16T11:21:04;4.47;;;1.73;;
74900;SDS011;63461;51.416;6.758;2024-01-16T11:23:32;9.97;;;3.20;;
74900;SDS011;63461;51.416;6.758;2024-01-16T11:26:00;9.97;;;3.27;;
74900;SDS011;63461;51.416;6.758;2024-01-16T11:28:45;11.67;;;3.70;;
74900;SDS011;63461;51.416;6.758;2024-01-16T11:31:27;9.57;;;3.50;;
74900;SDS011;63461;51.416;6.758;2024-01-16T11:33:53;12.33;;;2.80;;
74900;SDS011;63461;51.416;6.758;2024-01-16T11:39:17;11.17;;;3.10;;
74900;SDS011;63461;51.416;6.758;2024-01-16T11:47:17;12.13;;;3.53;;
74900;SDS011;63461;51.416;6.758;2024-01-16T11:49:51;5.93;;;2.80;;
74900;SDS011;63461;51.416;6.758;2024-01-16T11:52:42;11.97;;;3.57;;
74900;SDS011;63461;51.416;6.758;2024-01-16T11:55:56;13.40;;;3.10;;
74900;SDS011;63461;51.416;6.758;2024-01-16T12:00:54;6.67;;;2.67;;
74900;SDS011;63461;51.416;6.758;2024-01-16T12:03:22;7.40;;;3.20;;
74900;SDS011;63461;51.416;6.758;2024-01-16T12:05:55;12.70;;;3.20;;
74900;SDS011;63461;51.416;6.758;2024-01-16T12:08:21;13.33;;;3.67;;
74900;SDS011;63461;51.416;6.758;2024-01-16T12:10:47;13.20;;;3.57;;
74900;SDS011;63461;51.416;6.758;2024-01-16T12:13:14;9.50;;;3.10;;
74900;SDS011;63461;51.416;6.758;2024-01-16T12:15:40;12.47;;;3.53;;
74900;SDS011;63461;51.416;6.758;2024-01-16T12:18:06;11.80;;;3.57;;
74900;SDS011;63461;51.416;6.758;2024-01-16T12:20:33;9.13;;;3.47;;
74900;SDS011;63461;51.416;6.758;2024-01-16T12:23:04;15.20;;;4.20;;
74900;SDS011;63461;51.416;6.758;2024-01-16T12:25:33;11.00;;;3.70;;
74900;SDS011;63461;51.416;6.758;2024-01-16T12:28:02;16.70;;;3.93;;
74900;SDS011;63461;51.416;6.758;2024-01-16T12:30:30;13.63;;;3.97;;
74900;SDS011;63461;51.416;6.758;2024-01-16T12:33:21;17.83;;;4.40;;
74900;SDS011;63461;51.416;6.758;2024-01-16T12:35:46;4.93;;;2.67;;
74900;SDS011;63461;51.416;6.758;2024-01-16T12:38:13;9.73;;;3.50;;
74900;SDS011;63461;51.416;6.758;2024-01-16T12:40:44;10.00;;;3.37;;
74900;SDS011;63461;51.416;6.758;2024-01-16T12:43:11;13.97;;;4.17;;
74900;SDS011;63461;51.416;6.758;2024-01-16T12:45:37;10.77;;;3.87;;
74900;SDS011;63461;51.416;6.758;2024-01-16T12:48:03;7.37;;;2.50;;
74900;SDS011;63461;51.416;6.758;2024-01-16T12:50:31;10.70;;;3.27;;
74900;SDS011;63461;51.416;6.758;2024-01-16T12:53:15;13.20;;;4.00;;
74900;SDS011;63461;51.416;6.758;2024-01-16T12:55:44;10.93;;;3.80;;
74900;SDS011;63461;51.416;6.758;2024-01-16T12:58:20;13.90;;;4.00;;
74900;SDS011;63461;51.416;6.758;2024-01-16T13:00:52;10.23;;;3.90;;
74900;SDS011;63461;51.416;6.758;2024-01-16T13:03:20;15.77;;;4.63;;
74900;SDS011;63461;51.416;6.758;2024-01-16T13:05:56;10.77;;;3.37;;
74900;SDS011;63461;51.416;6.758;2024-01-16T13:08:24;10.70;;;3.93;;
74900;SDS011;63461;51.416;6.758;2024-01-16T13:11:03;10.13;;;3.83;;
74900;SDS011;63461;51.416;6.758;2024-01-16T13:13:31;10.97;;;3.27;;
74900;SDS011;63461;51.416;6.758;2024-01-16T13:15:58;10.87;;;3.60;;
74900;SDS011;63461;51.416;6.758;2024-01-16T13:18:24;12.87;;;4.27;;
74900;SDS011;63461;51.416;6.758;2024-01-16T13:20:53;11.23;;;3.90;;
74900;SDS011;63461;51.416;6.758;2024-01-16T13:23:20;15.80;;;4.30;;
74900;SDS011;63461;51.416;6.758;2024-01-16T13:25:47;13.03;;;4.27;;
74900;SDS011;63461;51.416;6.758;2024-01-16T13:28:14;12.70;;;3.83;;
74900;SDS011;63461;51.416;6.758;2024-01-16T13:30:41;12.60;;;4.00;;
74900;SDS011;63461;51.416;6.758;2024-01-16T13:33:07;10.40;;;3.90;;
74900;SDS011;63461;51.416;6.758;2024-01-16T13:35:34;15.67;;;4.20;;
74900;SDS011;63461;51.416;6.758;2024-01-16T13:38:01;6.60;;;2.07;;
74900;SDS011;63461;51.416;6.758;2024-01-16T13:40:29;8.80;;;4.10;;
74900;SDS011;63461;51.416;6.758;2024-01-16T13:42:55;7.10;;;3.40;;
74900;SDS011;63461;51.416;6.758;2024-01-16T13:45:21;11.13;;;4.00;;
74900;SDS011;63461;51.416;6.758;2024-01-16T13:47:48;10.50;;;3.67;;
74900;SDS011;63461;51.416;6.758;2024-01-16T13:50:14;7.93;;;3.40;;
74900;SDS011;63461;51.416;6.758;2024-01-16T13:52:40;9.80;;;3.60;;
74900;SDS011;63461;51.416;6.758;2024-01-16T13:55:06;4.50;;;2.20;;
74900;SDS011;63461;51.416;6.758;2024-01-16T13:57:32;9.17;;;2.80;;
74900;SDS011;63461;51.416;6.758;2024-01-16T14:00:00;14.60;;;3.10;;
74900;SDS011;63461;51.416;6.758;2024-01-16T14:02:37;8.97;;;3.17;;
74900;SDS011;63461;51.416;6.758;2024-01-16T14:05:04;18.97;;;3.80;;
74900;SDS011;63461;51.416;6.758;2024-01-16T14:07:31;21.27;;;4.13;;
74900;SDS011;63461;51.416;6.758;2024-01-16T14:09:57;10.07;;;3.80;;
74900;SDS011;63461;51.416;6.758;2024-01-16T14:12:23;10.23;;;3.33;;
74900;SDS011;63461;51.416;6.758;2024-01-16T14:14:50;8.67;;;3.53;;
74900;SDS011;63461;51.416;6.758;2024-01-16T14:17:16;9.27;;;3.80;;
74900;SDS011;63461;51.416;6.758;2024-01-16T14:19:42;9.67;;;3.80;;
74900;SDS011;63461;51.416;6.758;2024-01-16T14:22:08;8.13;;;3.03;;
74900;SDS011;63461;51.416;6.758;2024-01-16T14:24:34;6.70;;;3.00;;
74900;SDS011;63461;51.416;6.758;2024-01-16T14:27:00;11.13;;;3.40;;
74900;SDS011;63461;51.416;6.758;2024-01-16T14:29:25;8.53;;;3.37;;
74900;SDS011;63461;51.416;6.758;2024-01-16T14:31:52;10.20;;;3.77;;
74900;SDS011;63461;51.416;6.758;2024-01-16T14:34:19;9.67;;;2.37;;
74900;SDS011;63461;51.416;6.758;2024-01-16T14:36:45;13.63;;;3.83;;
74900;SDS011;63461;51.416;6.758;2024-01-16T14:39:11;10.43;;;3.43;;
74900;SDS011;63461;51.416;6.758;2024-01-16T14:41:41;9.47;;;3.53;;
74900;SDS011;63461;51.416;6.758;2024-01-16T14:44:08;13.43;;;3.97;;
74900;SDS011;63461;51.416;6.758;2024-01-16T14:46:37;9.83;;;3.20;;
74900;SDS011;63461;51.416;6.758;2024-01-16T14:49:05;4.53;;;2.03;;